Time;durP1;ratioP1;P1;durP2;ratioP2;P2;SDS_P1;SDS_P2;PMS_P1;PMS_P2;Temp;Humidity;BMP_temperature;BMP_pressure;BME280_temperature;BME280_humidity;BME280_pressure;Samples;Min_cycle;Max_cycle;Signal;HPM_P1;HPM_P2
2021/09/15 00:00:03;;;;;;;12.40;11.40;;;19.30;99.90;;;;;;5035552;28;20218;-78
2021/09/15 00:02:38;;;;;;;12.17;11.20;;;19.30;99.90;;;;;;5051430;28;20449;-78
2021/09/15 00:05:08;;;;;;;12.70;11.73;;;19.30;99.90;;;;;;5053353;28;20462;-78
2021/09/15 00:07:36;;;;;;;13.80;12.60;;;19.30;99.90;;;;;;5032211;28;20917;-78
2021/09/15 00:10:05;;;;;;;12.00;11.10;;;19.20;99.90;;;;;;5035343;28;20458;-77
2021/09/15 00:12:35;;;;;;;12.80;11.90;;;19.20;99.90;;;;;;5045437;28;20534;-78
2021/09/15 00:15:04;;;;;;;11.97;10.97;;;19.20;99.90;;;;;;5035461;28;20474;-77
2021/09/15 00:17:33;;;;;;;11.67;10.80;;;19.20;99.90;;;;;;5035416;28;21054;-77
2021/09/15 00:20:01;;;;;;;12.83;11.93;;;19.20;99.90;;;;;;5035674;28;20485;-77
2021/09/15 00:22:29;;;;;;;12.50;11.50;;;19.20;99.90;;;;;;5035429;28;20446;-78
2021/09/15 00:25:00;;;;;;;13.53;12.63;;;19.20;99.90;;;;;;5053191;28;20509;-78
2021/09/15 00:27:28;;;;;;;13.03;11.93;;;19.20;99.90;;;;;;5035536;28;20937;-78
2021/09/15 00:29:59;;;;;;;14.50;13.40;;;19.20;99.90;;;;;;5034766;28;20456;-77
2021/09/15 00:32:27;;;;;;;12.80;11.57;;;19.20;99.90;;;;;;5033358;28;20520;-78
2021/09/15 00:34:56;;;;;;;13.87;12.87;;;19.20;99.90;;;;;;5026915;28;20470;-78
2021/09/15 00:37:24;;;;;;;13.20;12.10;;;19.20;99.90;;;;;;5035532;28;20859;-77
2021/09/15 00:39:53;;;;;;;13.50;12.50;;;19.20;99.90;;;;;;5035251;28;20991;-77
2021/09/15 00:42:21;;;;;;;13.03;12.03;;;19.20;99.90;;;;;;5035080;28;20560;-77
2021/09/15 00:44:49;;;;;;;13.60;12.60;;;19.20;99.90;;;;;;5053012;28;20449;-78
2021/09/15 00:47:19;;;;;;;12.87;11.87;;;19.20;99.90;;;;;;5035393;28;20826;-77
2021/09/15 00:49:47;;;;;;;13.73;12.80;;;19.20;99.90;;;;;;5035893;28;20820;-78
2021/09/15 00:52:18;;;;;;;13.10;12.00;;;19.10;99.90;;;;;;5035822;28;20890;-79
2021/09/15 00:54:48;;;;;;;13.90;12.53;;;19.10;99.90;;;;;;5016368;28;20474;-78
2021/09/15 00:57:17;;;;;;;13.37;12.30;;;19.10;99.90;;;;;;5019192;28;20546;-77
2021/09/15 00:59:46;;;;;;;13.60;12.60;;;19.10;99.90;;;;;;5019098;28;20807;-77
2021/09/15 01:02:15;;;;;;;14.25;13.25;;;19.10;99.90;;;;;;5017925;28;20444;-77
2021/09/15 01:04:46;;;;;;;13.63;12.53;;;19.20;99.90;;;;;;5018994;28;20217;-77
2021/09/15 01:07:18;;;;;;;13.50;12.40;;;19.20;99.90;;;;;;5018591;28;20453;-77
2021/09/15 01:09:49;;;;;;;13.33;12.23;;;19.20;99.90;;;;;;5018942;28;20471;-77
2021/09/15 01:12:23;;;;;;;13.17;12.23;;;19.20;99.90;;;;;;5030305;28;20457;-78
2021/09/15 01:15:17;;;;;;;13.40;12.40;;;19.20;99.90;;;;;;5023753;28;21018;-78
2021/09/15 01:18:13;;;;;;;14.60;13.50;;;19.10;99.90;;;;;;5038648;28;20450;-77
2021/09/15 01:21:02;;;;;;;14.17;13.17;;;19.10;99.90;;;;;;5056742;28;20476;-77
2021/09/15 01:23:49;;;;;;;13.97;12.97;;;19.10;99.90;;;;;;5056650;28;20517;-78
2021/09/15 01:26:50;;;;;;;14.40;13.30;;;19.10;99.90;;;;;;5038429;28;20457;-78
2021/09/15 01:29:40;;;;;;;14.83;13.50;;;19.10;99.90;;;;;;5038494;28;20528;-77
2021/09/15 01:32:20;;;;;;;15.60;14.30;;;19.00;99.90;;;;;;5038376;28;20447;-77
2021/09/15 01:34:51;;;;;;;14.83;13.53;;;19.10;99.90;;;;;;5024360;28;20891;-78
2021/09/15 01:37:24;;;;;;;14.30;13.30;;;19.00;99.90;;;;;;5031012;28;20531;-78
2021/09/15 01:40:01;;;;;;;14.88;13.77;;;19.00;99.90;;;;;;5037206;28;20496;-77
2021/09/15 01:42:33;;;;;;;15.60;14.33;;;19.10;99.90;;;;;;5038546;28;20215;-77
2021/09/15 01:45:05;;;;;;;15.03;13.73;;;19.10;99.90;;;;;;5038001;28;20465;-77
2021/09/15 01:47:34;;;;;;;15.63;14.40;;;19.10;99.90;;;;;;5034845;28;20474;-77
2021/09/15 01:50:04;;;;;;;14.77;13.50;;;19.10;99.90;;;;;;5034827;28;20443;-78
2021/09/15 01:52:33;;;;;;;14.90;13.70;;;19.00;99.90;;;;;;5035308;28;20456;-77
2021/09/15 01:55:20;;;;;;;14.80;13.60;;;19.00;99.90;;;;;;5032146;28;20497;-78
2021/09/15 01:57:52;;;;;;;14.77;13.67;;;19.00;99.90;;;;;;4997888;28;20452;-78
2021/09/15 02:00:40;;;;;;;15.13;14.03;;;19.00;99.90;;;;;;5041327;28;20461;-77
2021/09/15 02:03:31;;;;;;;15.80;14.60;;;19.00;99.90;;;;;;5055494;28;20454;-77
2021/09/15 02:06:15;;;;;;;14.67;13.53;;;19.00;99.90;;;;;;5037749;28;20445;-78
2021/09/15 02:08:49;;;;;;;15.13;13.83;;;18.90;99.90;;;;;;5035757;28;20455;-78
2021/09/15 02:11:39;;;;;;;15.38;14.10;;;18.90;99.90;;;;;;5037554;28;20440;-77
2021/09/15 02:14:09;;;;;;;16.83;15.23;;;19.00;99.90;;;;;;5034092;28;20332;-78
2021/09/15 02:16:46;;;;;;;16.60;15.30;;;19.00;99.90;;;;;;5037525;28;20862;-77
2021/09/15 02:19:15;;;;;;;15.10;13.90;;;19.00;99.90;;;;;;5054377;28;20823;-77
2021/09/15 02:22:10;;;;;;;17.37;15.83;;;18.90;99.90;;;;;;5053169;28;20494;-77
2021/09/15 02:25:07;;;;;;;16.13;14.93;;;18.90;99.90;;;;;;5052053;28;20462;-77
2021/09/15 02:27:55;;;;;;;16.60;15.30;;;18.90;99.90;;;;;;5037346;28;21033;-77
2021/09/15 02:30:55;;;;;;;16.07;14.70;;;18.90;99.90;;;;;;5021468;28;20434;-77
2021/09/15 02:33:58;;;;;;;15.53;14.23;;;18.80;99.90;;;;;;5037125;28;20480;-77
2021/09/15 02:36:32;;;;;;;17.43;16.13;;;18.80;99.90;;;;;;5036555;28;20951;-77
2021/09/15 02:39:26;;;;;;;16.17;14.90;;;18.90;99.90;;;;;;5037121;28;20529;-77
2021/09/15 02:42:03;;;;;;;16.60;15.30;;;18.80;99.90;;;;;;5034385;28;20436;-78
2021/09/15 02:44:37;;;;;;;17.90;16.40;;;18.80;99.90;;;;;;5012671;28;20479;-77
2021/09/15 02:47:21;;;;;;;17.67;16.27;;;18.80;99.90;;;;;;5034089;28;20476;-77
2021/09/15 02:50:11;;;;;;;16.10;14.80;;;18.80;99.90;;;;;;5033540;28;20451;-77
2021/09/15 02:52:57;;;;;;;16.90;15.50;;;18.80;99.90;;;;;;5033922;28;20944;-78
2021/09/15 02:55:46;;;;;;;15.43;14.23;;;18.80;99.90;;;;;;5035122;28;20451;-77
2021/09/15 02:58:35;;;;;;;16.27;15.00;;;18.70;99.90;;;;;;5036979;28;20793;-77
2021/09/15 03:01:15;;;;;;;16.50;15.20;;;18.70;99.90;;;;;;5037752;28;20783;-77
2021/09/15 03:03:53;;;;;;;18.77;17.37;;;18.70;99.90;;;;;;5045805;28;20882;-78
2021/09/15 03:06:33;;;;;;;17.53;15.93;;;18.70;99.90;;;;;;5033377;28;20855;-77
2021/09/15 03:09:09;;;;;;;18.88;17.40;;;18.70;99.90;;;;;;5034571;28;20462;-77
2021/09/15 03:11:38;;;;;;;18.20;16.70;;;18.80;99.90;;;;;;5036601;28;20249;-77
2021/09/15 03:14:07;;;;;;;18.20;16.90;;;18.80;99.90;;;;;;5032873;28;20438;-77
2021/09/15 03:16:35;;;;;;;17.50;16.20;;;18.70;99.90;;;;;;5033245;28;20192;-77
2021/09/15 03:19:09;;;;;;;19.80;18.00;;;18.70;99.90;;;;;;5036506;28;20537;-77
2021/09/15 03:21:41;;;;;;;18.67;17.00;;;18.70;99.90;;;;;;5036171;28;20580;-77
2021/09/15 03:24:11;;;;;;;19.47;17.87;;;18.70;99.90;;;;;;5029669;28;20555;-77
2021/09/15 03:26:40;;;;;;;18.87;17.37;;;18.60;99.90;;;;;;5033918;28;20451;-79
2021/09/15 03:29:10;;;;;;;20.87;19.27;;;18.60;99.90;;;;;;5038788;28;21015;-79
2021/09/15 03:31:38;;;;;;;19.07;17.47;;;18.60;99.90;;;;;;5053085;28;20504;-79
2021/09/15 03:34:06;;;;;;;19.13;17.73;;;18.60;99.90;;;;;;5036003;28;20513;-77
2021/09/15 03:36:35;;;;;;;19.40;17.70;;;18.60;99.90;;;;;;5035991;28;20539;-77
2021/09/15 03:39:03;;;;;;;18.90;17.40;;;18.60;99.90;;;;;;5032669;28;20542;-77
2021/09/15 03:41:33;;;;;;;21.42;19.73;;;18.60;99.90;;;;;;5031545;28;20445;-77
2021/09/15 03:44:01;;;;;;;19.40;17.87;;;18.60;99.90;;;;;;5032468;28;20212;-77
2021/09/15 03:46:32;;;;;;;21.30;19.70;;;18.60;99.90;;;;;;5021411;28;20842;-77
2021/09/15 03:49:01;;;;;;;23.10;20.87;;;18.60;99.90;;;;;;5032582;28;20287;-77
2021/09/15 03:51:31;;;;;;;20.10;18.50;;;18.60;99.90;;;;;;5032561;28;20453;-77
2021/09/15 03:53:59;;;;;;;19.40;17.90;;;18.60;99.90;;;;;;5032290;28;20471;-78
2021/09/15 03:56:29;;;;;;;20.70;19.00;;;18.50;99.90;;;;;;5032474;28;20458;-77
2021/09/15 03:58:57;;;;;;;19.87;18.30;;;18.50;99.90;;;;;;5032422;28;20443;-77
2021/09/15 04:01:25;;;;;;;19.53;17.93;;;18.50;99.90;;;;;;5032301;28;20798;-77
2021/09/15 04:03:56;;;;;;;19.53;18.03;;;18.50;99.90;;;;;;5033599;28;20839;-80
2021/09/15 04:06:25;;;;;;;20.97;19.20;;;18.50;99.90;;;;;;5049444;28;20454;-79
2021/09/15 04:08:54;;;;;;;20.50;18.80;;;18.50;99.90;;;;;;5022385;28;21030;-79
2021/09/15 04:11:23;;;;;;;19.77;18.17;;;18.50;99.90;;;;;;5034120;28;20855;-80
2021/09/15 04:13:52;;;;;;;20.80;19.20;;;18.50;99.90;;;;;;5032675;28;20441;-79
2021/09/15 04:16:21;;;;;;;19.63;18.03;;;18.60;99.90;;;;;;5036706;28;20219;-79
2021/09/15 04:18:49;;;;;;;20.98;19.48;;;18.60;99.90;;;;;;5036956;28;20443;-79
2021/09/15 04:21:19;;;;;;;20.03;18.43;;;18.60;99.90;;;;;;5037100;28;20200;-79
2021/09/15 04:23:58;;;;;;;19.60;18.00;;;18.60;99.90;;;;;;5036699;28;20827;-77
2021/09/15 04:32:01;;;;;;;20.50;18.70;;;18.50;99.90;;;;;;5012931;28;20462;-77
2021/09/15 04:34:29;;;;;;;19.80;18.20;;;18.50;99.90;;;;;;5016316;28;20482;-77
2021/09/15 04:37:01;;;;;;;20.73;19.03;;;18.50;99.90;;;;;;5035297;28;20445;-77
2021/09/15 04:39:32;;;;;;;20.47;18.73;;;18.50;99.90;;;;;;5035479;28;20469;-77
2021/09/15 04:42:02;;;;;;;19.03;17.40;;;18.50;99.90;;;;;;5035145;28;20446;-77
2021/09/15 04:44:30;;;;;;;20.55;18.95;;;18.40;99.90;;;;;;5031460;28;20452;-77
2021/09/15 04:46:58;;;;;;;21.93;19.97;;;18.50;99.90;;;;;;5031891;28;20299;-77
2021/09/15 04:49:28;;;;;;;21.70;19.70;;;18.50;99.90;;;;;;5031856;28;20459;-77
2021/09/15 04:51:56;;;;;;;22.20;20.50;;;18.40;99.90;;;;;;5030933;28;20942;-77
2021/09/15 04:54:26;;;;;;;21.50;19.40;;;18.40;99.90;;;;;;5031484;28;20571;-78
2021/09/15 04:56:56;;;;;;;21.87;20.00;;;18.50;99.90;;;;;;5035052;28;20508;-77
2021/09/15 04:59:25;;;;;;;22.13;20.33;;;18.50;99.90;;;;;;5021300;28;20512;-76
2021/09/15 05:01:56;;;;;;;21.60;19.60;;;18.50;99.90;;;;;;5015368;28;20439;-77
2021/09/15 05:04:25;;;;;;;22.30;20.40;;;18.40;99.90;;;;;;5029666;28;20531;-76
2021/09/15 05:07:17;;;;;;;22.50;20.63;;;18.40;99.90;;;;;;5052352;28;20434;-77
2021/09/15 05:09:48;;;;;;;23.30;21.40;;;18.40;99.90;;;;;;5035540;28;20460;-77
2021/09/15 05:12:16;;;;;;;22.50;20.60;;;18.40;99.90;;;;;;5034894;28;20450;-76
2021/09/15 05:14:47;;;;;;;22.10;20.37;;;18.40;99.90;;;;;;5034863;28;20547;-76
2021/09/15 05:17:15;;;;;;;24.00;22.20;;;18.30;99.90;;;;;;5035598;28;20447;-76
2021/09/15 05:19:44;;;;;;;22.80;20.90;;;18.40;99.90;;;;;;5034888;28;20234;-76
2021/09/15 05:22:12;;;;;;;24.53;22.63;;;18.30;99.90;;;;;;5034821;28;20473;-77
2021/09/15 05:24:40;;;;;;;24.23;22.40;;;18.30;99.90;;;;;;5033602;28;20434;-77
2021/09/15 05:27:10;;;;;;;23.43;21.43;;;18.40;99.90;;;;;;5035088;28;20723;-76
2021/09/15 05:29:39;;;;;;;23.53;21.63;;;18.40;99.90;;;;;;5034791;28;20450;-77
2021/09/15 05:32:09;;;;;;;23.47;21.40;;;18.40;99.90;;;;;;5034725;28;20445;-77
2021/09/15 05:34:37;;;;;;;23.13;21.23;;;18.40;99.90;;;;;;5038270;28;21006;-77
2021/09/15 05:37:05;;;;;;;24.03;22.20;;;18.30;99.90;;;;;;5038360;28;20473;-77
2021/09/15 05:39:34;;;;;;;24.83;22.90;;;18.30;99.90;;;;;;5039018;28;20453;-77
2021/09/15 05:42:03;;;;;;;23.73;21.83;;;18.30;99.90;;;;;;5038182;28;20450;-77
2021/09/15 05:44:34;;;;;;;24.90;22.80;;;18.30;99.90;;;;;;5038590;28;20481;-77
2021/09/15 05:47:03;;;;;;;25.10;23.00;;;18.30;99.90;;;;;;5038157;28;20466;-77
2021/09/15 05:49:34;;;;;;;25.60;23.30;;;18.30;99.90;;;;;;5037772;28;20448;-77
2021/09/15 05:52:02;;;;;;;30.43;27.87;;;18.30;99.90;;;;;;5037868;28;20199;-77
2021/09/15 05:54:31;;;;;;;25.70;23.30;;;18.30;99.90;;;;;;5037923;28;20466;-78
2021/09/15 05:56:59;;;;;;;26.25;24.15;;;18.20;99.90;;;;;;5036917;28;20484;-77
2021/09/15 05:59:27;;;;;;;24.73;22.73;;;18.30;99.90;;;;;;5038025;28;20227;-78
2021/09/15 06:01:57;;;;;;;24.60;22.43;;;18.30;99.90;;;;;;5040029;28;20958;-79
2021/09/15 06:04:26;;;;;;;23.10;21.20;;;18.30;99.90;;;;;;5041518;28;20831;-79
2021/09/15 06:07:01;;;;;;;23.87;21.80;;;18.30;99.90;;;;;;5040388;28;20449;-79
2021/09/15 06:09:31;;;;;;;23.80;21.80;;;18.30;99.90;;;;;;5040278;28;20456;-79
2021/09/15 06:12:07;;;;;;;25.80;23.70;;;18.30;99.90;;;;;;5040980;28;20457;-79
2021/09/15 07:18:48;;;;;;;26.00;24.00;;;18.60;99.90;;;;;;6005845;23;20203;-79
2021/09/15 07:21:17;;;;;;;26.10;23.90;;;18.60;99.90;;;;;;6164822;23;20416;-79
2021/09/15 07:23:46;;;;;;;26.40;24.20;;;18.60;99.90;;;;;;6167913;23;20936;-80
2021/09/15 07:26:14;;;;;;;27.93;25.63;;;18.60;99.90;;;;;;6227070;23;20422;-79
2021/09/15 07:28:42;;;;;;;28.58;26.27;;;18.60;99.90;;;;;;6225079;23;20499;-79
2021/09/15 07:31:10;;;;;;;28.37;26.00;;;18.70;99.90;;;;;;6227169;23;20210;-79
2021/09/15 07:33:38;;;;;;;27.90;25.50;;;18.70;99.90;;;;;;6238637;23;20408;-79
2021/09/15 07:36:06;;;;;;;30.10;27.40;;;18.70;99.90;;;;;;6227483;23;20381;-79
2021/09/15 07:38:36;;;;;;;27.53;25.00;;;18.70;99.90;;;;;;6227457;23;20533;-79
2021/09/15 07:41:07;;;;;;;29.13;26.50;;;18.70;99.90;;;;;;6228099;23;20414;-79
2021/09/15 07:43:35;;;;;;;29.13;26.37;;;18.70;99.90;;;;;;6239109;23;20383;-79
2021/09/15 07:46:03;;;;;;;26.47;24.37;;;18.70;99.90;;;;;;6239429;23;20445;-79
2021/09/15 07:48:32;;;;;;;28.03;25.53;;;18.70;99.90;;;;;;6239021;22;20422;-80
2021/09/15 07:51:00;;;;;;;28.23;25.83;;;18.70;99.90;;;;;;6227467;23;20418;-80
2021/09/15 07:53:28;;;;;;;27.50;25.20;;;18.70;99.90;;;;;;6227952;23;20441;-79
2021/09/15 07:55:59;;;;;;;26.70;24.50;;;18.70;99.90;;;;;;6228003;23;20461;-80
2021/09/15 07:58:27;;;;;;;29.80;27.40;;;18.70;99.90;;;;;;6227464;23;20552;-80
2021/09/15 08:00:55;;;;;;;31.35;28.75;;;18.70;99.90;;;;;;6225643;23;20409;-80
2021/09/15 08:03:24;;;;;;;29.87;27.47;;;18.80;99.90;;;;;;6228789;23;20191;-80
2021/09/15 08:05:54;;;;;;;30.73;28.00;;;18.80;99.90;;;;;;6238758;23;20450;-80
2021/09/15 08:08:24;;;;;;;31.80;28.67;;;18.80;99.90;;;;;;6225970;23;20456;-79
2021/09/15 08:10:52;;;;;;;31.20;28.50;;;18.70;99.90;;;;;;6220278;23;20518;-79
2021/09/15 08:13:24;;;;;;;28.77;26.43;;;18.80;99.90;;;;;;6225996;23;20427;-80
2021/09/15 08:15:53;;;;;;;28.47;26.20;;;18.80;99.90;;;;;;6225909;23;20429;-80
2021/09/15 08:18:21;;;;;;;31.57;28.90;;;18.80;99.90;;;;;;6262737;23;20457;-80
2021/09/15 08:21:04;;;;;;;30.87;28.37;;;18.80;99.90;;;;;;6226321;23;20409;-80
2021/09/15 08:23:33;;;;;;;28.40;26.00;;;18.80;99.90;;;;;;6225765;23;20452;-80
2021/09/15 08:26:01;;;;;;;29.13;26.63;;;18.80;99.90;;;;;;6226337;23;20464;-80
2021/09/15 08:28:40;;;;;;;30.67;28.07;;;18.80;99.90;;;;;;6226328;23;20409;-80
2021/09/15 08:31:09;;;;;;;29.40;26.90;;;18.80;99.90;;;;;;6225834;23;20501;-80
2021/09/15 08:33:37;;;;;;;31.92;29.23;;;18.80;99.90;;;;;;6261498;23;20400;-81
2021/09/15 08:36:05;;;;;;;30.20;27.80;;;18.90;99.90;;;;;;6263127;23;20238;-80
2021/09/15 08:38:36;;;;;;;30.80;28.00;;;18.90;99.90;;;;;;6225765;23;20686;-80
2021/09/15 08:41:08;;;;;;;29.40;26.90;;;19.00;99.90;;;;;;6226260;23;20424;-80
2021/09/15 08:43:38;;;;;;;28.50;26.20;;;18.90;99.90;;;;;;6226691;23;20422;-81
2021/09/15 08:46:10;;;;;;;29.73;27.20;;;18.90;99.90;;;;;;6263946;23;20943;-80
2021/09/15 08:48:40;;;;;;;30.87;28.13;;;18.90;99.90;;;;;;6264901;23;20405;-80
2021/09/15 08:51:12;;;;;;;29.97;27.50;;;18.90;99.90;;;;;;6227245;23;20406;-81
2021/09/15 08:53:41;;;;;;;31.40;28.63;;;19.00;99.90;;;;;;6226934;23;20440;-80
2021/09/15 08:56:11;;;;;;;30.77;28.27;;;19.00;99.90;;;;;;6264342;23;20397;-80
2021/09/15 09:11:06;;;;;;;31.63;28.70;;;19.10;99.90;;;;;;5879615;24;20514;-80
2021/09/15 09:13:35;;;;;;;30.73;28.10;;;19.10;99.90;;;;;;5989664;23;20479;-80
2021/09/15 09:16:03;;;;;;;32.67;29.87;;;19.10;99.90;;;;;;6134546;23;20804;-80
2021/09/15 09:18:34;;;;;;;33.47;30.47;;;19.10;99.90;;;;;;6158503;23;21058;-80
2021/09/15 09:42:38;;;;;;;31.03;28.43;;;19.30;99.90;;;;;;5844178;24;20166;-80
2021/09/15 09:45:16;;;;;;;46.65;42.15;;;19.30;99.90;;;;;;5930278;24;20799;-80
2021/09/15 09:47:46;;;;;;;35.47;32.37;;;19.40;99.90;;;;;;6051462;23;20269;-80
2021/09/15 09:50:16;;;;;;;31.83;29.07;;;19.40;99.90;;;;;;6100211;23;20457;-80
2021/09/15 09:53:00;;;;;;;30.80;28.27;;;19.40;99.90;;;;;;6076064;23;20433;-79
2021/09/15 09:55:31;;;;;;;33.17;30.20;;;19.40;99.90;;;;;;6075293;23;21071;-80
2021/09/15 09:58:03;;;;;;;33.47;30.43;;;19.40;99.90;;;;;;6109554;23;20434;-80
2021/09/15 10:00:32;;;;;;;34.07;31.07;;;19.40;99.90;;;;;;6075652;23;20438;-80
2021/09/15 10:03:03;;;;;;;31.73;29.03;;;19.40;99.90;;;;;;6075997;23;20422;-80
2021/09/15 10:05:31;;;;;;;31.07;28.47;;;19.40;99.90;;;;;;6075883;23;20446;-80
2021/09/15 10:08:01;;;;;;;31.00;28.27;;;19.40;99.90;;;;;;6085704;23;20418;-80
2021/09/15 10:10:30;;;;;;;34.30;31.45;;;19.50;99.90;;;;;;6099035;23;20467;-80
2021/09/15 10:13:01;;;;;;;33.53;30.50;;;19.50;99.90;;;;;;6077305;23;20174;-80
2021/09/15 10:15:30;;;;;;;42.30;38.37;;;19.50;99.90;;;;;;6106390;23;20440;-80
2021/09/15 10:17:58;;;;;;;35.33;32.13;;;19.50;99.90;;;;;;6219707;23;20449;-80
2021/09/15 10:20:36;;;;;;;35.13;31.90;;;19.50;99.90;;;;;;6218813;23;20725;-80
2021/09/15 10:23:38;;;;;;;37.53;34.33;;;19.50;99.90;;;;;;6219544;23;20406;-80
2021/09/15 10:26:28;;;;;;;33.47;30.23;;;19.50;99.90;;;;;;6219893;23;20846;-80
2021/09/15 10:29:31;;;;;;;33.43;30.40;;;19.50;99.90;;;;;;6218813;23;20410;-80
2021/09/15 10:32:08;;;;;;;32.50;29.63;;;19.50;99.90;;;;;;6230729;23;20381;-80
2021/09/15 10:35:01;;;;;;;33.17;30.40;;;19.50;99.90;;;;;;6219288;23;20437;-80
2021/09/15 10:37:48;;;;;;;33.43;30.37;;;19.50;99.90;;;;;;6193185;23;20422;-79
2021/09/15 10:40:35;;;;;;;32.93;29.93;;;19.50;99.90;;;;;;6216767;23;20434;-79
2021/09/15 10:43:04;;;;;;;36.10;32.90;;;19.50;99.90;;;;;;6215259;23;20452;-77
2021/09/15 10:45:33;;;;;;;32.93;30.13;;;19.60;99.90;;;;;;6227176;23;20184;-78
2021/09/15 10:48:14;;;;;;;33.37;30.30;;;19.50;99.90;;;;;;6215612;23;20418;-78
2021/09/15 10:50:53;;;;;;;33.53;30.63;;;19.60;99.90;;;;;;6215529;23;20908;-78
2021/09/15 10:53:24;;;;;;;33.00;30.13;;;19.60;99.90;;;;;;6215440;23;20450;-78
2021/09/15 10:55:56;;;;;;;31.23;28.53;;;19.60;99.90;;;;;;6215934;23;20489;-78
2021/09/15 10:58:26;;;;;;;31.60;28.97;;;19.50;99.90;;;;;;6227638;23;20446;-78
2021/09/15 11:00:58;;;;;;;31.07;28.27;;;19.50;99.90;;;;;;6215101;23;20497;-78
2021/09/15 11:03:32;;;;;;;31.53;28.63;;;19.50;99.90;;;;;;6214834;23;20415;-78
2021/09/15 11:06:18;;;;;;;29.23;26.67;;;19.60;99.90;;;;;;6214081;23;20431;-78
2021/09/15 11:08:48;;;;;;;28.67;26.37;;;19.50;99.90;;;;;;6214290;23;20891;-77
2021/09/15 11:11:50;;;;;;;28.20;25.80;;;19.50;99.90;;;;;;6216023;23;20493;-78
2021/09/15 11:14:19;;;;;;;29.27;26.88;;;19.50;99.90;;;;;;6244567;23;20867;-77
2021/09/15 11:16:52;;;;;;;27.80;25.50;;;19.60;99.90;;;;;;6256170;23;20641;-77
2021/09/15 11:19:30;;;;;;;27.53;25.33;;;19.60;99.90;;;;;;6219016;23;20436;-77
2021/09/15 11:22:00;;;;;;;28.07;25.77;;;19.60;99.90;;;;;;6219097;23;20502;-77
2021/09/15 11:24:31;;;;;;;32.27;29.33;;;19.60;99.90;;;;;;6218939;23;20441;-77
2021/09/15 11:27:04;;;;;;;31.07;28.37;;;19.60;99.90;;;;;;6219045;23;20413;-77
2021/09/15 11:29:41;;;;;;;26.30;24.10;;;19.60;99.90;;;;;;6219305;23;20459;-77
2021/09/15 11:32:15;;;;;;;25.33;23.13;;;19.60;99.90;;;;;;6256122;23;20447;-77
2021/09/15 11:34:45;;;;;;;24.27;22.37;;;19.70;99.90;;;;;;6255970;23;20938;-77
2021/09/15 11:37:21;;;;;;;25.43;23.27;;;19.60;99.90;;;;;;6256125;23;20420;-77
2021/09/15 11:39:57;;;;;;;25.70;23.47;;;19.60;99.90;;;;;;6255999;23;20508;-77
2021/09/15 11:42:27;;;;;;;25.80;23.67;;;19.60;99.90;;;;;;6220115;23;20460;-77
2021/09/15 11:44:55;;;;;;;27.50;25.30;;;19.60;99.90;;;;;;6219321;23;20490;-77
2021/09/15 11:47:27;;;;;;;26.40;24.20;;;19.70;99.90;;;;;;6257946;23;20428;-77
2021/09/15 11:49:55;;;;;;;27.57;25.27;;;19.70;99.90;;;;;;6258371;23;20388;-77
2021/09/15 11:52:24;;;;;;;24.30;22.30;;;19.80;99.90;;;;;;6220804;23;20928;-77
2021/09/15 11:54:58;;;;;;;25.27;23.20;;;19.80;99.90;;;;;;6220754;23;20528;-77
2021/09/15 11:57:32;;;;;;;23.93;21.93;;;19.70;99.90;;;;;;6221567;23;20398;-77
2021/09/15 12:00:02;;;;;;;24.70;22.80;;;19.70;99.90;;;;;;6247930;23;20500;-77
2021/09/15 12:02:32;;;;;;;23.43;21.43;;;19.70;99.90;;;;;;6220683;23;20937;-76
2021/09/15 12:05:01;;;;;;;23.30;21.40;;;19.70;99.90;;;;;;6257984;23;20413;-77
2021/09/15 12:07:30;;;;;;;23.50;21.60;;;19.70;99.90;;;;;;6257693;23;20409;-77
2021/09/15 12:09:59;;;;;;;22.63;20.67;;;19.70;99.90;;;;;;6220718;23;20615;-77
2021/09/15 12:12:28;;;;;;;23.73;21.88;;;19.60;99.90;;;;;;6257211;23;20427;-77
2021/09/15 12:14:57;;;;;;;23.57;21.67;;;19.60;99.90;;;;;;6220731;23;20281;-77
2021/09/15 12:17:30;;;;;;;22.90;21.00;;;19.60;99.90;;;;;;6220706;23;20473;-77
2021/09/15 12:19:58;;;;;;;27.17;24.90;;;19.60;99.90;;;;;;6256182;23;20408;-77
2021/09/15 12:22:31;;;;;;;22.57;20.67;;;19.70;99.90;;;;;;6220658;23;20171;-77
2021/09/15 12:25:02;;;;;;;22.50;20.70;;;19.70;99.90;;;;;;6247961;23;20464;-77
2021/09/15 12:27:31;;;;;;;24.40;22.40;;;19.70;99.90;;;;;;6258062;23;20469;-77
2021/09/15 12:30:01;;;;;;;22.63;20.77;;;19.60;99.90;;;;;;6257391;23;20440;-77
2021/09/15 12:32:32;;;;;;;22.20;20.10;;;19.60;99.90;;;;;;6220492;23;20425;-77
2021/09/15 12:35:01;;;;;;;21.20;19.50;;;19.60;99.90;;;;;;6220354;23;20448;-77
2021/09/15 12:37:37;;;;;;;23.83;21.93;;;19.50;99.90;;;;;;6220342;23;20417;-77
2021/09/15 12:40:08;;;;;;;22.37;20.50;;;19.60;99.90;;;;;;6247535;23;20752;-77
2021/09/15 12:42:37;;;;;;;22.90;21.00;;;19.50;99.90;;;;;;6220488;23;20413;-76
2021/09/15 12:45:09;;;;;;;23.45;21.55;;;19.60;99.90;;;;;;6220084;23;20412;-76
2021/09/15 12:47:40;;;;;;;21.53;19.77;;;19.60;99.90;;;;;;6220452;23;20490;-77
2021/09/15 12:50:19;;;;;;;19.90;18.33;;;19.70;99.90;;;;;;6220580;23;20402;-77
2021/09/15 12:52:49;;;;;;;24.58;22.58;;;19.70;99.90;;;;;;6246222;23;20436;-77
2021/09/15 12:55:22;;;;;;;20.43;18.57;;;19.80;99.90;;;;;;6219942;23;20274;-77
2021/09/15 12:57:57;;;;;;;23.20;21.27;;;19.90;99.90;;;;;;6257389;23;20387;-77
2021/09/15 13:00:30;;;;;;;21.27;19.57;;;19.90;99.90;;;;;;6257156;23;20425;-77
2021/09/15 13:03:02;;;;;;;19.23;17.37;;;19.90;99.90;;;;;;6257235;23;20465;-77
2021/09/15 13:05:33;;;;;;;19.57;17.80;;;19.90;99.90;;;;;;6256990;23;20536;-77
2021/09/15 13:08:01;;;;;;;19.23;17.63;;;19.90;99.90;;;;;;6257320;23;20398;-77
2021/09/15 13:10:30;;;;;;;19.37;17.57;;;19.90;99.90;;;;;;6220418;23;20445;-77
2021/09/15 13:12:58;;;;;;;18.20;16.70;;;20.00;99.90;;;;;;6220423;23;20878;-77
2021/09/15 13:15:26;;;;;;;18.20;16.70;;;20.00;99.90;;;;;;6247489;23;20453;-77
2021/09/15 13:17:55;;;;;;;19.58;17.98;;;20.00;99.90;;;;;;6219346;23;20510;-77
2021/09/15 13:20:24;;;;;;;19.40;17.77;;;20.00;99.90;;;;;;6220458;23;20211;-78
2021/09/15 13:22:52;;;;;;;20.37;18.67;;;20.10;99.90;;;;;;6220483;23;20444;-78
2021/09/15 13:25:20;;;;;;;20.05;18.45;;;20.10;99.90;;;;;;6218542;23;20415;-77
2021/09/15 13:27:49;;;;;;;18.07;16.77;;;20.20;99.90;;;;;;6220205;23;20553;-77
2021/09/15 13:30:17;;;;;;;18.77;17.07;;;20.30;99.90;;;;;;6220675;23;20409;-78
2021/09/15 13:32:45;;;;;;;18.50;17.13;;;20.30;99.90;;;;;;6220452;23;20497;-78
2021/09/15 13:35:13;;;;;;;18.33;16.63;;;20.40;99.90;;;;;;6257459;23;20422;-77
2021/09/15 13:37:43;;;;;;;17.27;15.97;;;20.40;99.90;;;;;;6220263;23;20757;-78
2021/09/15 13:40:12;;;;;;;17.53;16.13;;;20.50;99.90;;;;;;6257954;23;20437;-78
2021/09/15 13:42:40;;;;;;;17.70;16.23;;;20.50;99.90;;;;;;6220800;23;20468;-78
2021/09/15 13:45:10;;;;;;;17.33;15.93;;;20.50;99.90;;;;;;6257489;23;20418;-78
2021/09/15 13:47:43;;;;;;;18.60;17.07;;;20.50;99.90;;;;;;6220783;23;20489;-78
2021/09/15 13:50:12;;;;;;;18.17;16.67;;;20.50;99.90;;;;;;6220592;23;20412;-78
2021/09/15 13:52:40;;;;;;;15.97;14.57;;;20.50;99.90;;;;;;6258302;23;20426;-78
2021/09/15 13:55:11;;;;;;;16.97;15.60;;;20.60;99.90;;;;;;6220837;23;20448;-78
2021/09/15 13:57:40;;;;;;;16.30;15.00;;;20.60;99.90;;;;;;6220700;23;20448;-78
2021/09/15 14:00:09;;;;;;;18.03;16.33;;;20.60;99.90;;;;;;6257760;23;20529;-78
2021/09/15 14:02:38;;;;;;;17.87;16.07;;;20.50;99.90;;;;;;6221609;23;20414;-78
2021/09/15 14:05:09;;;;;;;18.40;16.93;;;20.50;99.90;;;;;;6248804;23;20429;-77
2021/09/15 14:07:38;;;;;;;19.03;17.43;;;20.50;99.90;;;;;;6258140;23;20947;-78
2021/09/15 14:10:09;;;;;;;18.70;17.30;;;20.50;99.90;;;;;;6220751;23;20731;-78
2021/09/15 14:12:57;;;;;;;18.03;16.63;;;20.60;99.90;;;;;;6247905;23;20394;-78
2021/09/15 14:15:27;;;;;;;18.20;16.70;;;20.60;99.90;;;;;;6220337;23;20529;-78
2021/09/15 14:17:55;;;;;;;18.20;16.80;;;20.70;99.90;;;;;;6221498;23;20496;-78
2021/09/15 14:20:23;;;;;;;17.83;16.13;;;20.70;99.90;;;;;;6221352;23;20947;-78
2021/09/15 14:22:52;;;;;;;18.13;16.53;;;20.80;99.90;;;;;;6220704;23;20449;-78
2021/09/15 14:25:20;;;;;;;17.77;16.17;;;20.80;99.90;;;;;;6221219;23;20460;-78
2021/09/15 14:27:48;;;;;;;18.70;17.10;;;20.80;99.90;;;;;;6220585;23;20408;-78
2021/09/15 14:30:18;;;;;;;18.57;16.97;;;20.90;99.90;;;;;;6258258;23;20420;-78
2021/09/15 14:32:47;;;;;;;18.50;17.07;;;20.90;99.90;;;;;;6248419;23;20420;-78
2021/09/15 14:35:15;;;;;;;17.37;15.87;;;20.90;99.90;;;;;;6221807;23;20433;-78
2021/09/15 14:37:44;;;;;;;18.07;16.57;;;20.90;99.90;;;;;;6257733;23;20481;-78